Portsmouth, Virginia
Current Conditions -  °F | °C
As of 10:59 AM on Sunday 21 Dec 2014 (Local Time) from KNGU Reporting Station
Overcast Overcast  
Wind Chill: 39°   Ceiling: 7000
Heat Index: 44°   Visibility: 10mi
Dew Point: 31°   Wind: 9mph
Humidity: 60%   Direction: 30°NNE
Pressure: 30.37"   Gusts: NA
Location:  36.83°N, 76.3°W
Report Text: KNGU 211559Z 03008KT 10SM OVC070 07/M01 A3037 RMK AO2 SLP283 T00671006
Loading
Personal Weather Stations






























Interactive Weather Map New forecast layout! Learn more

10-Day Weather Forecast

Advertisements
Track Severe Weather on mobile